createdAt,value
2019-04-28T00:01:13.325Z,99.90
2019-04-28T00:03:41.958Z,99.90
2019-04-28T00:06:10.975Z,99.90
2019-04-28T00:08:37.822Z,99.90
2019-04-28T00:11:04.768Z,99.90
2019-04-28T00:13:32.188Z,99.90
2019-04-28T00:15:59.279Z,99.90
2019-04-28T00:18:26.227Z,99.90
2019-04-28T00:21:18.730Z,99.90
2019-04-28T00:23:53.769Z,99.90
2019-04-28T00:26:31.142Z,99.90
2019-04-28T00:28:58.034Z,99.90
2019-04-28T00:31:24.919Z,99.90
2019-04-28T00:33:51.792Z,99.90
2019-04-28T00:36:18.631Z,99.90
2019-04-28T00:38:45.578Z,99.90
2019-04-28T00:41:12.539Z,99.90
2019-04-28T00:43:39.318Z,99.90
2019-04-28T00:46:07.907Z,99.90
2019-04-28T00:48:34.814Z,99.90
2019-04-28T00:51:01.877Z,99.90
2019-04-28T00:53:32.183Z,99.90
2019-04-28T00:55:59.255Z,99.90
2019-04-28T00:58:26.195Z,99.90
2019-04-28T01:00:55.255Z,99.90
2019-04-28T01:03:23.921Z,99.90
2019-04-28T01:05:50.900Z,99.90
2019-04-28T01:08:18.051Z,99.90
2019-04-28T01:10:45.115Z,99.90
2019-04-28T01:13:12.097Z,99.90
2019-04-28T01:15:51.661Z,99.90
2019-04-28T01:18:24.646Z,99.90
2019-04-28T01:20:51.529Z,99.90
2019-04-28T01:23:20.288Z,99.90
2019-04-28T01:25:47.479Z,99.90
2019-04-28T01:28:14.219Z,99.90
2019-04-28T01:31:09.565Z,99.90
2019-04-28T01:34:01.946Z,99.90
2019-04-28T01:36:30.162Z,99.90
2019-04-28T01:38:57.191Z,99.90
2019-04-28T01:41:24.050Z,99.90
2019-04-28T01:43:52.333Z,99.90
2019-04-28T01:46:19.921Z,99.90
2019-04-28T01:48:46.784Z,99.90
2019-04-28T01:51:13.776Z,99.90
2019-04-28T01:53:40.632Z,99.90
2019-04-28T01:56:07.539Z,99.90
2019-04-28T01:58:34.926Z,99.90
2019-04-28T02:01:01.924Z,99.90
2019-04-28T02:03:30.605Z,99.90
2019-04-28T02:05:57.544Z,99.90
2019-04-28T02:08:24.420Z,99.90
2019-04-28T02:10:51.268Z,99.90
2019-04-28T02:13:19.858Z,99.90
2019-04-28T02:15:47.109Z,99.90
2019-04-28T02:18:14.069Z,99.90
2019-04-28T02:20:43.091Z,99.90
2019-04-28T02:23:19.756Z,99.90
2019-04-28T02:25:46.795Z,99.90
2019-04-28T02:28:14.875Z,99.90
2019-04-28T02:30:48.939Z,99.90
2019-04-28T02:33:11.231Z,99.90
2019-04-28T02:35:38.278Z,99.90
2019-04-28T02:38:05.294Z,99.90
2019-04-28T02:40:32.304Z,99.90
2019-04-28T02:43:01.311Z,99.90
2019-04-28T02:45:31.412Z,99.90
2019-04-28T02:48:01.127Z,99.90
2019-04-28T02:50:47.811Z,99.90
2019-04-28T02:53:36.415Z,99.90
2019-04-28T02:56:03.487Z,99.90
2019-04-28T02:58:31.295Z,99.90
2019-04-28T03:01:09.389Z,99.90
2019-04-28T03:03:27.232Z,99.90
2019-04-28T03:05:54.292Z,99.90
2019-04-28T03:08:21.503Z,99.90
2019-04-28T03:10:50.884Z,99.90
2019-04-28T03:13:17.641Z,99.90
2019-04-28T03:15:44.631Z,99.90
2019-04-28T03:18:11.766Z,99.90
2019-04-28T03:20:41.511Z,99.90
2019-04-28T03:23:11.493Z,99.90
2019-04-28T03:26:01.686Z,99.90
2019-04-28T03:28:42.120Z,99.90
2019-04-28T03:31:55.158Z,99.90
2019-04-28T03:33:56.844Z,99.90
2019-04-28T03:36:24.006Z,99.90
2019-04-28T03:38:53.199Z,99.90
2019-04-28T03:41:21.201Z,99.90
2019-04-28T03:43:50.932Z,99.90
2019-04-28T03:46:21.939Z,99.90
2019-04-28T03:48:51.194Z,99.90
2019-04-28T03:51:20.918Z,99.90
2019-04-28T03:53:47.167Z,99.90
2019-04-28T03:56:14.272Z,99.90
2019-04-28T03:58:41.276Z,99.90
2019-04-28T04:01:10.695Z,99.90
2019-04-28T04:03:36.916Z,99.90
2019-04-28T04:06:03.966Z,99.90
2019-04-28T04:08:31.186Z,99.90
2019-04-28T04:11:16.580Z,99.90
2019-04-28T04:14:12.011Z,99.90
2019-04-28T04:16:52.865Z,99.90
2019-04-28T04:19:20.403Z,99.90
2019-04-28T04:21:47.396Z,99.90
2019-04-28T04:24:14.247Z,99.90
2019-04-28T04:26:41.225Z,99.90
2019-04-28T04:29:10.138Z,99.90
2019-04-28T04:31:37.225Z,99.90
2019-04-28T04:34:03.989Z,99.90
2019-04-28T04:36:31.234Z,99.90
2019-04-28T04:39:01.418Z,99.90
2019-04-28T04:41:27.542Z,99.90
2019-04-28T04:43:54.428Z,99.90
2019-04-28T04:46:23.270Z,99.90
2019-04-28T04:48:50.847Z,99.90
2019-04-28T04:51:20.915Z,99.90
2019-04-28T04:53:47.140Z,99.90
2019-04-28T04:56:14.179Z,99.90
2019-04-28T04:58:41.017Z,99.90
2019-04-28T05:01:35.364Z,99.90
2019-04-28T05:04:10.999Z,99.90
2019-04-28T05:06:41.601Z,99.90
2019-04-28T05:09:10.133Z,99.90
2019-04-28T05:11:39.973Z,99.90
2019-04-28T05:14:09.646Z,99.90
2019-04-28T05:16:36.584Z,99.90
2019-04-28T05:19:06.728Z,99.90
2019-04-28T05:21:36.061Z,99.90
2019-04-28T05:24:41.973Z,99.90
2019-04-28T05:27:09.841Z,99.90
2019-04-28T05:29:36.882Z,99.90
2019-04-28T05:32:03.860Z,99.90
2019-04-28T05:34:31.055Z,99.90
2019-04-28T05:36:57.942Z,99.90
2019-04-28T05:39:24.688Z,99.90
2019-04-28T05:41:51.452Z,99.90
2019-04-28T05:44:20.172Z,99.90
2019-04-28T05:46:47.365Z,99.90
2019-04-28T05:49:29.708Z,99.90
2019-04-28T05:52:05.839Z,99.90
2019-04-28T05:54:43.357Z,99.90
2019-04-28T05:57:20.545Z,99.90
2019-04-28T06:00:04.817Z,99.90
2019-04-28T06:02:39.687Z,99.90
2019-04-28T06:05:07.504Z,99.90
2019-04-28T06:07:40.667Z,99.90
2019-04-28T06:10:07.711Z,99.90
2019-04-28T06:12:34.675Z,99.90
2019-04-28T06:15:01.551Z,99.90
2019-04-28T06:17:29.466Z,99.90
2019-04-28T06:19:56.499Z,99.90
2019-04-28T06:22:23.372Z,99.90
2019-04-28T06:24:50.359Z,99.90
2019-04-28T06:27:17.191Z,99.90
2019-04-28T06:29:44.188Z,99.90
2019-04-28T06:32:11.117Z,99.90
2019-04-28T06:34:37.996Z,99.90
2019-04-28T06:37:04.826Z,99.90
2019-04-28T06:39:31.607Z,99.90
2019-04-28T06:41:58.504Z,99.90
2019-04-28T06:44:25.467Z,99.90
2019-04-28T06:46:52.336Z,99.90
2019-04-28T06:49:19.224Z,99.90
2019-04-28T06:51:46.220Z,99.60
2019-04-28T06:54:12.991Z,99.50
2019-04-28T06:56:39.959Z,97.20
2019-04-28T06:59:06.703Z,96.30
2019-04-28T07:01:33.523Z,96.30
2019-04-28T07:04:00.442Z,97.70
2019-04-28T07:06:27.191Z,99.40
2019-04-28T07:08:54.032Z,99.90
2019-04-28T07:11:20.779Z,99.90
2019-04-28T07:13:47.592Z,99.90
2019-04-28T07:16:14.563Z,99.70
2019-04-28T07:18:41.538Z,98.30
2019-04-28T07:21:15.456Z,96.30
2019-04-28T07:23:42.287Z,94.70
2019-04-28T07:26:09.346Z,93.60
2019-04-28T07:28:36.175Z,92.70
2019-04-28T07:31:03.258Z,92.10
2019-04-28T07:33:36.277Z,91.70
2019-04-28T07:35:59.097Z,93.00
2019-04-28T07:38:25.939Z,92.30
2019-04-28T07:40:52.792Z,91.80
2019-04-28T07:43:19.863Z,91.70
2019-04-28T07:45:46.702Z,92.40
2019-04-28T07:48:13.576Z,92.90
2019-04-28T07:50:40.472Z,93.20
2019-04-28T07:53:18.222Z,94.00
2019-04-28T07:55:45.159Z,93.70
2019-04-28T07:58:12.004Z,92.90
2019-04-28T08:00:38.987Z,94.20
2019-04-28T08:03:05.895Z,94.10
2019-04-28T08:05:32.844Z,94.50
2019-04-28T08:08:00.007Z,94.40
2019-04-28T08:10:27.003Z,94.20
2019-04-28T08:12:53.980Z,93.50
2019-04-28T08:15:21.165Z,93.20
2019-04-28T08:17:48.023Z,92.40
2019-04-28T08:20:14.988Z,91.00
2019-04-28T08:22:41.901Z,92.20
2019-04-28T08:25:10.867Z,92.00
2019-04-28T08:27:37.859Z,92.10
2019-04-28T08:30:05.340Z,89.30
2019-04-28T08:32:54.720Z,87.40
2019-04-28T08:35:21.571Z,89.70
2019-04-28T08:37:48.481Z,89.40
2019-04-28T08:40:15.407Z,90.00
2019-04-28T08:42:42.292Z,92.30
2019-04-28T08:45:09.300Z,92.60
2019-04-28T08:47:36.252Z,93.40
2019-04-28T08:50:03.752Z,93.10
2019-04-28T08:52:30.975Z,93.30
2019-04-28T08:54:58.079Z,93.80
2019-04-28T08:57:24.938Z,93.80
2019-04-28T08:59:51.972Z,92.70
2019-04-28T09:02:18.703Z,93.50
2019-04-28T09:04:45.598Z,93.10
2019-04-28T09:07:12.323Z,92.90
2019-04-28T09:09:39.298Z,93.10
2019-04-28T09:12:06.140Z,93.30
2019-04-28T09:14:33.003Z,93.90
2019-04-28T09:17:00.159Z,93.50
2019-04-28T09:19:26.937Z,94.00
2019-04-28T09:21:53.704Z,94.20
2019-04-28T09:24:20.551Z,94.70
2019-04-28T09:26:47.419Z,95.10
2019-04-28T09:29:14.187Z,95.70
2019-04-28T09:31:41.018Z,96.80
2019-04-28T09:34:07.759Z,96.80
2019-04-28T09:36:34.624Z,95.10
2019-04-28T09:39:01.560Z,94.30
2019-04-28T09:41:28.818Z,92.90
2019-04-28T09:44:09.539Z,92.90
2019-04-28T09:46:38.359Z,92.50
2019-04-28T09:49:05.351Z,91.00
2019-04-28T09:51:35.260Z,89.70
2019-04-28T09:54:02.482Z,87.30
2019-04-28T09:56:29.468Z,86.50
2019-04-28T09:58:56.436Z,90.10
2019-04-28T10:01:23.407Z,87.20
2019-04-28T10:03:50.139Z,89.80
2019-04-28T10:06:17.043Z,85.40
2019-04-28T10:08:44.159Z,86.20
2019-04-28T10:11:11.148Z,84.50
2019-04-28T10:13:39.520Z,85.80
2019-04-28T10:16:06.391Z,88.30
2019-04-28T10:18:33.249Z,90.20
2019-04-28T10:21:00.126Z,90.60
2019-04-28T10:23:27.095Z,91.30
2019-04-28T10:25:54.167Z,88.80
2019-04-28T10:28:21.371Z,81.50
2019-04-28T10:30:48.151Z,70.70
2019-04-28T10:33:14.996Z,61.40
2019-04-28T10:35:41.971Z,60.80
2019-04-28T10:38:08.831Z,57.80
2019-04-28T10:40:56.004Z,63.70
2019-04-28T10:43:23.067Z,66.30
2019-04-28T10:45:50.815Z,61.70
2019-04-28T10:48:17.763Z,60.40
2019-04-28T10:50:44.696Z,56.50
2019-04-28T10:53:11.899Z,57.50
2019-04-28T10:55:38.620Z,57.50
2019-04-28T10:58:05.729Z,59.40
2019-04-28T11:00:34.043Z,62.80
2019-04-28T11:03:00.925Z,68.80
2019-04-28T11:05:33.399Z,65.50
2019-04-28T11:08:01.404Z,67.00
2019-04-28T11:10:30.240Z,66.40
2019-04-28T11:12:57.022Z,65.00
2019-04-28T11:15:32.970Z,62.40
2019-04-28T11:17:59.715Z,59.10
2019-04-28T11:20:26.755Z,56.20
2019-04-28T11:22:53.715Z,54.60
2019-04-28T11:25:20.539Z,55.40
2019-04-28T11:27:47.519Z,54.50
2019-04-28T11:30:15.379Z,59.30
2019-04-28T11:32:48.835Z,64.20
2019-04-28T11:35:21.711Z,69.00
2019-04-28T11:37:49.187Z,70.80
2019-04-28T11:40:16.095Z,73.30
2019-04-28T11:42:42.911Z,77.00
2019-04-28T11:45:10.379Z,79.10
2019-04-28T11:47:37.248Z,80.80
2019-04-28T11:50:04.502Z,81.30
2019-04-28T11:52:31.416Z,83.70
2019-04-28T11:54:58.208Z,83.80
2019-04-28T11:57:25.227Z,85.20
2019-04-28T11:59:54.088Z,80.80
2019-04-28T12:02:20.971Z,81.00
2019-04-28T12:04:48.051Z,82.40
2019-04-28T12:07:15.009Z,81.50
2019-04-28T12:10:04.117Z,81.80
2019-04-28T12:12:35.217Z,80.50
2019-04-28T12:15:27.975Z,78.80
2019-04-28T12:18:14.988Z,80.50
2019-04-28T12:20:41.739Z,82.30
2019-04-28T12:23:09.821Z,80.90
2019-04-28T12:25:36.775Z,79.60
2019-04-28T12:28:03.747Z,79.30
2019-04-28T12:30:30.636Z,79.40
2019-04-28T12:32:57.534Z,80.80
2019-04-28T12:35:24.383Z,81.40
2019-04-28T12:37:51.540Z,78.70
2019-04-28T12:40:18.379Z,79.40
2019-04-28T12:42:45.350Z,81.00
2019-04-28T12:45:12.519Z,79.60
2019-04-28T12:47:39.400Z,80.90
2019-04-28T12:50:16.369Z,81.70
2019-04-28T12:52:43.356Z,80.10
2019-04-28T12:55:10.507Z,80.40
2019-04-28T12:57:41.856Z,80.10
2019-04-28T13:00:40.840Z,78.90
2019-04-28T13:03:14.618Z,80.20
2019-04-28T13:05:42.495Z,79.80
2019-04-28T13:08:09.387Z,80.80
2019-04-28T13:10:36.451Z,79.50
2019-04-28T13:13:03.387Z,80.70
2019-04-28T13:15:30.480Z,81.30
2019-04-28T13:17:57.363Z,82.00
2019-04-28T13:20:24.255Z,81.20
2019-04-28T13:22:51.097Z,84.00
2019-04-28T13:25:17.936Z,83.50
2019-04-28T13:27:44.791Z,85.70
2019-04-28T13:30:14.021Z,84.90
2019-04-28T13:32:40.883Z,85.20
2019-04-28T13:35:09.119Z,86.10
2019-04-28T13:37:36.187Z,84.60
2019-04-28T13:40:09.735Z,84.40
2019-04-28T13:42:36.715Z,85.00
2019-04-28T13:45:07.055Z,85.60
2019-04-28T13:47:34.698Z,86.00
2019-04-28T13:50:09.487Z,87.40
2019-04-28T13:52:36.459Z,87.50
2019-04-28T13:55:22.156Z,86.90
2019-04-28T13:57:52.127Z,88.30
2019-04-28T14:00:23.617Z,86.90
2019-04-28T14:03:01.105Z,84.80
2019-04-28T14:05:41.542Z,84.90
2019-04-28T14:08:08.380Z,84.70
2019-04-28T14:10:35.150Z,85.90
2019-04-28T14:13:01.932Z,87.00
2019-04-28T14:15:28.883Z,87.80
2019-04-28T14:17:55.752Z,86.60
2019-04-28T14:20:22.500Z,83.40
2019-04-28T14:22:49.251Z,84.80
2019-04-28T14:25:16.183Z,83.70
2019-04-28T14:27:43.190Z,84.50
2019-04-28T14:30:10.328Z,84.80
2019-04-28T14:32:37.064Z,83.50
2019-04-28T14:35:04.134Z,82.30
2019-04-28T14:37:30.974Z,83.80
2019-04-28T14:39:57.817Z,82.30
2019-04-28T14:42:24.691Z,80.00
2019-04-28T14:44:51.631Z,82.20
2019-04-28T14:47:18.458Z,83.30
2019-04-28T14:49:45.484Z,81.70
2019-04-28T14:52:12.263Z,79.40
2019-04-28T14:54:39.014Z,78.10
2019-04-28T14:57:05.878Z,78.80
2019-04-28T14:59:32.878Z,77.90
2019-04-28T15:02:19.475Z,77.30
2019-04-28T15:04:56.867Z,77.40
2019-04-28T15:07:43.219Z,77.60
2019-04-28T15:10:19.186Z,77.80
2019-04-28T15:12:46.018Z,76.40
2019-04-28T15:15:13.383Z,78.60
2019-04-28T15:17:40.348Z,77.40
2019-04-28T15:20:07.419Z,78.40
2019-04-28T15:22:34.419Z,78.50
2019-04-28T15:25:01.264Z,74.70
2019-04-28T15:27:28.007Z,74.60
2019-04-28T15:29:54.732Z,76.00
2019-04-28T15:32:21.711Z,75.20
2019-04-28T15:34:48.428Z,73.40
2019-04-28T15:37:15.573Z,72.40
2019-04-28T15:39:42.596Z,72.00
2019-04-28T15:42:09.503Z,72.70
2019-04-28T15:44:36.279Z,74.00
2019-04-28T15:47:03.248Z,74.00
2019-04-28T15:49:30.037Z,75.10
2019-04-28T15:51:56.811Z,75.30
2019-04-28T15:54:23.708Z,74.90
2019-04-28T15:56:50.666Z,75.00
2019-04-28T15:59:18.684Z,74.80
2019-04-28T16:01:45.814Z,73.60
2019-04-28T16:04:12.810Z,74.50
2019-04-28T16:06:39.671Z,74.50
2019-04-28T16:09:11.544Z,75.00
2019-04-28T16:11:38.707Z,73.20
2019-04-28T16:14:05.467Z,74.40
2019-04-28T16:16:32.240Z,72.80
2019-04-28T16:18:59.182Z,74.70
2019-04-28T16:21:26.283Z,74.30
2019-04-28T16:23:53.155Z,75.00
2019-04-28T16:26:22.806Z,74.60
2019-04-28T16:28:48.779Z,75.00
2019-04-28T16:31:15.649Z,75.00
2019-04-28T16:33:42.414Z,75.10
2019-04-28T16:36:09.175Z,75.00
2019-04-28T16:38:35.943Z,74.80
2019-04-28T16:41:05.383Z,73.90
2019-04-28T16:43:40.811Z,73.80
2019-04-28T16:46:07.657Z,74.00
2019-04-28T16:48:34.399Z,74.30
2019-04-28T16:51:01.289Z,73.80
2019-04-28T16:53:28.167Z,73.40
2019-04-28T16:56:13.132Z,72.90
2019-04-28T16:58:52.847Z,74.30
2019-04-28T17:01:39.476Z,73.80
2019-04-28T17:04:06.411Z,75.30
2019-04-28T17:06:33.166Z,74.70
2019-04-28T17:09:00.338Z,74.60
2019-04-28T17:11:27.075Z,74.80
2019-04-28T17:13:53.907Z,74.70
2019-04-28T17:16:20.798Z,75.30
2019-04-28T17:18:47.652Z,75.90
2019-04-28T17:21:14.587Z,76.60
2019-04-28T17:23:41.603Z,77.40
2019-04-28T17:26:11.243Z,77.70
2019-04-28T17:28:37.344Z,79.40
2019-04-28T17:31:04.440Z,80.20
2019-04-28T17:33:31.183Z,80.80
2019-04-28T17:35:58.195Z,82.40
2019-04-28T17:38:25.267Z,82.60
2019-04-28T17:40:52.139Z,82.00
2019-04-28T17:43:19.039Z,82.20
2019-04-28T17:45:46.014Z,84.60
2019-04-28T17:48:18.761Z,82.80
2019-04-28T17:50:45.748Z,82.80
2019-04-28T17:53:12.575Z,84.10
2019-04-28T17:55:39.471Z,83.50
2019-04-28T17:58:06.379Z,84.20
2019-04-28T18:00:45.963Z,83.70
2019-04-28T18:03:38.219Z,84.00
2019-04-28T18:06:18.423Z,84.80
2019-04-28T18:08:45.465Z,85.90
2019-04-28T18:11:12.639Z,86.50
2019-04-28T18:13:39.635Z,87.20
2019-04-28T18:16:34.571Z,88.10
2019-04-28T18:19:04.948Z,88.30
2019-04-28T18:21:31.812Z,88.60
2019-04-28T18:23:58.687Z,89.40
2019-04-28T18:26:25.391Z,89.50
2019-04-28T18:28:52.168Z,90.20
2019-04-28T18:31:32.930Z,91.20
2019-04-28T18:34:34.790Z,91.30
2019-04-28T18:37:18.327Z,91.80
2019-04-28T18:40:03.146Z,92.20
2019-04-28T18:42:37.254Z,92.50
2019-04-28T18:45:04.278Z,91.70
2019-04-28T18:47:31.094Z,92.40
2019-04-28T18:49:58.035Z,93.00
2019-04-28T18:52:24.760Z,93.20
2019-04-28T18:54:51.727Z,93.70
2019-04-28T18:57:18.448Z,93.50
2019-04-28T18:59:45.467Z,94.10
2019-04-28T19:02:27.120Z,94.70
2019-04-28T19:04:53.903Z,94.90
2019-04-28T19:07:35.550Z,95.50
2019-04-28T19:10:11.156Z,96.30
2019-04-28T19:12:59.264Z,96.70
2019-04-28T19:15:57.824Z,97.10
2019-04-28T19:18:29.467Z,97.50
2019-04-28T19:20:56.335Z,97.90
2019-04-28T19:23:23.140Z,98.30
2019-04-28T19:25:50.047Z,98.30
2019-04-28T19:28:16.896Z,98.70
2019-04-28T19:30:45.586Z,99.00
2019-04-28T19:33:12.544Z,99.20
2019-04-28T19:35:39.541Z,99.60
2019-04-28T19:38:06.425Z,99.90
2019-04-28T19:40:33.400Z,99.90
2019-04-28T19:43:00.376Z,99.90
2019-04-28T19:45:28.227Z,99.90
2019-04-28T19:47:55.067Z,99.90
2019-04-28T19:50:21.807Z,99.90
2019-04-28T19:52:49.275Z,99.90
2019-04-28T19:55:23.505Z,99.90
2019-04-28T19:58:12.877Z,99.90
2019-04-28T20:00:52.407Z,99.90
2019-04-28T20:03:19.340Z,99.90
2019-04-28T20:05:46.357Z,99.90
2019-04-28T20:08:13.238Z,99.90
2019-04-28T20:10:40.138Z,99.90
2019-04-28T20:13:06.987Z,99.90
2019-04-28T20:15:34.871Z,99.90
2019-04-28T20:18:01.739Z,99.90
2019-04-28T20:20:28.594Z,99.90
2019-04-28T20:22:55.447Z,99.90
2019-04-28T20:25:22.343Z,99.90
2019-04-28T20:27:49.116Z,99.90
2019-04-28T20:30:16.562Z,99.90
2019-04-28T20:32:45.139Z,99.90
2019-04-28T20:35:14.443Z,99.90
2019-04-28T20:37:46.164Z,99.90
2019-04-28T20:40:18.723Z,99.90
2019-04-28T20:42:51.215Z,99.90
2019-04-28T20:45:18.073Z,99.90
2019-04-28T20:47:44.843Z,99.90
2019-04-28T20:50:11.911Z,99.90
2019-04-28T20:52:38.651Z,99.90
2019-04-28T20:55:05.892Z,99.90
2019-04-28T20:57:32.698Z,99.90
2019-04-28T20:59:59.415Z,99.90
2019-04-28T21:02:26.235Z,99.90
2019-04-28T21:04:53.118Z,99.90
2019-04-28T21:07:19.968Z,99.90
2019-04-28T21:09:47.011Z,99.90
2019-04-28T21:12:13.768Z,99.90
2019-04-28T21:14:40.626Z,99.90
2019-04-28T21:17:07.606Z,99.90
2019-04-28T21:19:34.379Z,99.90
2019-04-28T21:22:01.226Z,99.90
2019-04-28T21:24:27.967Z,99.90
2019-04-28T21:26:54.711Z,99.90
2019-04-28T21:29:21.606Z,99.90
2019-04-28T21:31:48.471Z,99.90
2019-04-28T21:34:15.345Z,99.90
2019-04-28T21:36:42.204Z,99.90
2019-04-28T21:39:09.204Z,99.90
2019-04-28T21:41:36.279Z,99.90
2019-04-28T21:44:25.407Z,99.90
2019-04-28T21:46:59.962Z,99.90
2019-04-28T21:49:28.858Z,99.90
2019-04-28T21:51:55.614Z,99.90
2019-04-28T21:54:22.480Z,99.90
2019-04-28T21:56:49.372Z,99.90
2019-04-28T21:59:16.278Z,99.90
2019-04-28T22:01:43.554Z,99.90
2019-04-28T22:04:10.285Z,99.90
2019-04-28T22:06:37.127Z,99.90
2019-04-28T22:09:05.377Z,99.90
2019-04-28T22:11:32.267Z,99.90
2019-04-28T22:13:59.283Z,99.90
2019-04-28T22:16:26.114Z,99.90
2019-04-28T22:18:53.015Z,99.90
2019-04-28T22:21:19.747Z,99.90
2019-04-28T22:24:06.173Z,99.90
2019-04-28T22:26:43.334Z,99.90
2019-04-28T22:29:10.207Z,99.90
2019-04-28T22:31:37.099Z,99.90
2019-04-28T22:34:03.963Z,99.90
2019-04-28T22:36:30.987Z,99.90
2019-04-28T22:38:57.956Z,99.90
2019-04-28T22:41:24.887Z,99.90
2019-04-28T22:43:51.769Z,99.90
2019-04-28T22:46:18.561Z,99.90
2019-04-28T22:48:45.411Z,99.90
2019-04-28T22:51:12.297Z,99.90
2019-04-28T22:53:39.276Z,99.90
2019-04-28T22:56:26.007Z,99.90
2019-04-28T22:58:56.731Z,99.90
2019-04-28T23:01:27.575Z,99.90
2019-04-28T23:04:06.433Z,99.90
2019-04-28T23:06:33.475Z,99.90
2019-04-28T23:09:00.463Z,99.90
2019-04-28T23:11:27.463Z,99.90
2019-04-28T23:13:54.435Z,99.90
2019-04-28T23:16:21.541Z,99.90
2019-04-28T23:18:48.676Z,99.90
2019-04-28T23:21:24.095Z,99.90
2019-04-28T23:23:50.957Z,99.90
2019-04-28T23:26:17.848Z,99.90
2019-04-28T23:28:44.699Z,99.90
2019-04-28T23:31:11.723Z,99.90
2019-04-28T23:33:38.693Z,99.90
2019-04-28T23:36:05.632Z,99.90
2019-04-28T23:38:32.515Z,99.90
2019-04-28T23:41:08.543Z,99.90
2019-04-28T23:43:35.495Z,99.90
2019-04-28T23:46:02.631Z,99.90
2019-04-28T23:48:29.469Z,99.90
2019-04-28T23:51:18.999Z,99.90
2019-04-28T23:53:57.097Z,99.90
2019-04-28T23:56:23.963Z,99.90
2019-04-28T23:58:50.831Z,99.90
